Time;durP1;ratioP1;P1;durP2;ratioP2;P2;SDS_P1;SDS_P2;PMS_P1;PMS_P2;Temp;Humidity;BMP_temperature;BMP_pressure;BME280_temperature;BME280_humidity;BME280_pressure;Samples;Min_cycle;Max_cycle;Signal;HPM_P1;HPM_P2
2024/02/11 00:01:38;;;;;;;;;;;9.40;99.90;;;-146.41;100.00;57768.22;5020740;28;1266;-69
2024/02/11 00:04:05;;;;;;;;;;;9.30;99.90;;;-146.41;100.00;57768.22;5025838;28;1304;-69
2024/02/11 00:06:32;;;;;;;;;;;9.30;99.90;;;-146.41;100.00;57768.22;5018940;28;1344;-69
2024/02/11 00:08:59;;;;;;;;;;;9.30;99.90;;;-146.41;100.00;57768.22;5018040;28;1987;-69
2024/02/11 00:11:26;;;;;;;;;;;9.30;99.90;;;-146.41;100.00;57768.22;5027383;28;1994;-69
2024/02/11 00:13:53;;;;;;;;;;;9.30;99.90;;;-146.41;100.00;57768.22;5023805;28;1332;-69
2024/02/11 00:16:20;;;;;;;;;;;9.30;99.90;;;-146.41;100.00;57768.22;5024687;28;1559;-69
2024/02/11 00:18:48;;;;;;;;;;;9.30;99.90;;;-146.41;100.00;57768.22;5025446;28;1208;-68
2024/02/11 00:21:15;;;;;;;;;;;9.30;99.90;;;-146.41;100.00;57768.22;5028269;28;1304;-69
2024/02/11 00:23:44;;;;;;;;;;;9.30;99.90;;;-146.41;100.00;57768.22;5026700;28;2078;-69
2024/02/11 00:26:11;;;;;;;;;;;9.30;99.90;;;-146.41;100.00;57768.22;5026141;28;1372;-69
2024/02/11 00:28:39;;;;;;;;;;;9.30;99.90;;;-146.41;100.00;57768.22;5025121;28;1254;-69
2024/02/11 00:31:06;;;;;;;;;;;9.30;99.90;;;-146.41;100.00;57768.22;5023582;28;1340;-69
2024/02/11 00:33:33;;;;;;;;;;;9.30;99.90;;;-146.41;100.00;57768.22;5022632;28;1981;-69
2024/02/11 00:36:01;;;;;;;;;;;9.30;99.90;;;-146.41;100.00;57768.22;5019790;28;3247;-69
2024/02/11 00:38:28;;;;;;;;;;;9.30;99.90;;;-146.41;100.00;57768.22;5016815;28;1445;-69
2024/02/11 00:40:55;;;;;;;;;;;9.30;99.90;;;-146.41;100.00;57768.22;5006423;28;2433;-69
2024/02/11 00:43:22;;;;;;;;;;;9.30;99.90;;;-146.41;100.00;57768.22;5021047;28;1316;-69
2024/02/11 00:45:49;;;;;;;;;;;9.20;99.90;;;-146.41;100.00;57768.22;5021316;28;1528;-69
2024/02/11 00:48:15;;;;;;;;;;;9.30;99.90;;;-146.41;100.00;57768.22;5025580;28;1329;-69
2024/02/11 00:50:43;;;;;;;;;;;9.30;99.90;;;-146.41;100.00;57768.22;5025085;28;1380;-69
2024/02/11 00:53:10;;;;;;;;;;;9.30;99.90;;;-146.41;100.00;57768.22;5020862;28;1993;-69
2024/02/11 00:55:37;;;;;;;;;;;9.30;99.90;;;-146.41;100.00;57768.22;5022386;28;1991;-69
2024/02/11 00:58:04;;;;;;;;;;;9.20;99.90;;;-146.41;100.00;57768.22;5020209;28;1293;-68
2024/02/11 01:00:31;;;;;;;;;;;9.20;99.90;;;-146.41;100.00;57768.22;5026853;28;1408;-69
2024/02/11 01:02:58;;;;;;;;;;;9.20;99.90;;;-146.41;100.00;57768.22;5026252;28;1300;-69
2024/02/11 01:05:25;;;;;;;;;;;9.10;99.90;;;-146.41;100.00;57768.22;5022323;28;1697;-68
2024/02/11 01:07:52;;;;;;;;;;;8.90;99.90;;;-146.41;100.00;57768.22;5026351;28;1340;-68
2024/02/11 01:10:21;;;;;;;;;;;8.80;99.90;;;-146.41;100.00;57768.22;5023655;28;2068;-70
2024/02/11 01:12:49;;;;;;;;;;;8.80;99.90;;;-146.41;100.00;57768.22;5025763;28;1950;-68
2024/02/11 01:15:16;;;;;;;;;;;8.60;99.90;;;-146.41;100.00;57768.22;5022687;28;1402;-69
2024/02/11 01:17:44;;;;;;;;;;;8.40;99.90;;;-146.41;100.00;57768.22;5031984;28;1156;-69
2024/02/11 01:20:13;;;;;;;;;;;8.40;99.90;;;-146.41;100.00;57768.22;5028083;28;1153;-69
2024/02/11 01:22:44;;;;;;;;;;;8.30;99.90;;;-146.41;100.00;57768.22;5026265;28;1382;-69
2024/02/11 01:25:11;;;;;;;;;;;8.10;99.90;;;-146.41;100.00;57768.22;5028220;28;3043;-70
2024/02/11 01:27:38;;;;;;;;;;;8.00;99.90;;;-146.41;100.00;57768.22;5028483;28;1250;-69
2024/02/11 01:30:06;;;;;;;;;;;7.90;99.90;;;-146.41;100.00;57768.22;5028146;28;1033;-69
2024/02/11 01:32:33;;;;;;;;;;;7.80;99.90;;;-146.41;100.00;57768.22;5028515;28;1969;-69
2024/02/11 01:35:00;;;;;;;;;;;7.60;99.90;;;-146.41;100.00;57768.22;5026261;28;1312;-69
2024/02/11 01:37:27;;;;;;;;;;;7.50;99.90;;;-146.41;100.00;57768.22;5021537;28;1993;-69
2024/02/11 01:39:54;;;;;;;;;;;7.50;99.90;;;-146.41;100.00;57768.22;5023613;28;1392;-69
2024/02/11 01:42:21;;;;;;;;;;;7.40;99.90;;;-146.41;100.00;57768.22;5028124;28;2667;-69
2024/02/11 01:44:48;;;;;;;;;;;7.30;99.90;;;-146.41;100.00;57768.22;5029097;28;2800;-68
2024/02/11 01:47:15;;;;;;;;;;;7.40;99.90;;;-146.41;100.00;57768.22;5028156;28;2741;-69
2024/02/11 01:49:42;;;;;;;;;;;7.20;99.90;;;-146.41;100.00;57768.22;5010789;28;1255;-69
2024/02/11 01:52:10;;;;;;;;;;;7.20;99.90;;;-146.41;100.00;57768.22;5026634;28;1989;-69
2024/02/11 01:54:37;;;;;;;;;;;7.10;99.90;;;-146.41;100.00;57768.22;5025233;28;1458;-69
2024/02/11 01:57:05;;;;;;;;;;;7.20;99.90;;;-146.41;100.00;57768.22;5025229;28;1975;-69
2024/02/11 01:59:38;;;;;;;;;;;7.00;99.90;;;-146.41;100.00;57768.22;5020857;28;1165;-69
2024/02/11 02:02:09;;;;;;;;;;;7.00;99.90;;;-146.41;100.00;57768.22;5037910;28;1169;-68
2024/02/11 02:04:37;;;;;;;;;;;7.00;99.90;;;-146.41;100.00;57768.22;5024196;28;1465;-69
2024/02/11 02:07:04;;;;;;;;;;;7.00;99.90;;;-146.41;100.00;57768.22;5024339;28;1441;-69
2024/02/11 02:09:32;;;;;;;;;;;;;;;-146.41;100.00;57768.22;5026764;28;1358;-69
2024/02/11 02:12:02;;;;;;;;;;;6.80;99.90;;;-146.41;100.00;57768.22;5012935;28;3200;-69
2024/02/11 02:14:29;;;;;;;;;;;6.80;99.90;;;-146.41;100.00;57768.22;5027475;28;1347;-69
2024/02/11 02:16:56;;;;;;;;;;;6.80;99.90;;;-146.41;100.00;57768.22;5026115;28;1145;-68
2024/02/11 02:19:25;;;;;;;;;;;6.80;99.90;;;-146.41;100.00;57768.22;5027434;28;1493;-68
2024/02/11 02:21:54;;;;;;;;;;;6.80;99.90;;;-146.41;100.00;57768.22;5022786;28;1474;-68
2024/02/11 02:24:21;;;;;;;;;;;6.80;99.90;;;-146.41;100.00;57768.22;5022601;28;1314;-68
2024/02/11 02:26:48;;;;;;;;;;;6.70;99.90;;;-146.41;100.00;57768.22;5026463;28;2587;-68
2024/02/11 02:29:14;;;;;;;;;;;6.70;99.90;;;-146.41;100.00;57768.22;5022502;28;1652;-68
2024/02/11 02:31:41;;;;;;;;;;;6.60;99.90;;;-146.41;100.00;57768.22;5020470;28;1345;-68
2024/02/11 02:34:08;;;;;;;;;;;6.60;99.90;;;-146.41;100.00;57768.22;5026073;28;2218;-69
2024/02/11 02:36:36;;;;;;;;;;;6.60;99.90;;;-146.41;100.00;57768.22;5024999;28;1200;-68
2024/02/11 02:39:03;;;;;;;;;;;6.60;99.90;;;-146.41;100.00;57768.22;5028311;28;1627;-68
2024/02/11 02:41:30;;;;;;;;;;;6.60;99.90;;;-146.41;100.00;57768.22;5029321;28;1276;-69
2024/02/11 02:43:57;;;;;;;;;;;6.50;99.90;;;-146.41;100.00;57768.22;5026556;28;1513;-68
2024/02/11 02:46:28;;;;;;;;;;;6.40;99.90;;;-146.41;100.00;57768.22;5017328;28;1306;-69
2024/02/11 02:48:54;;;;;;;;;;;6.40;99.90;;;-146.41;100.00;57768.22;5018130;28;2059;-69
2024/02/11 02:51:21;;;;;;;;;;;6.40;99.90;;;-146.41;100.00;57768.22;5019409;28;1465;-69
2024/02/11 02:53:51;;;;;;;;;;;6.30;99.90;;;-146.41;100.00;57768.22;5018834;28;1910;-69
2024/02/11 02:56:18;;;;;;;;;;;6.40;99.90;;;-146.41;100.00;57768.22;5022260;28;1224;-69
2024/02/11 02:58:45;;;;;;;;;;;6.30;99.90;;;-146.41;100.00;57768.22;5022095;28;1130;-69
2024/02/11 03:01:29;;;;;;;;;;;6.30;99.90;;;-146.41;100.00;57768.22;5017506;28;1225;-69
2024/02/11 03:03:59;;;;;;;;;;;6.30;99.90;;;-146.41;100.00;57768.22;5017030;28;3208;-69
2024/02/11 03:06:26;;;;;;;;;;;6.30;99.90;;;-146.41;100.00;57768.22;5018015;28;1385;-69
2024/02/11 03:08:53;;;;;;;;;;;6.40;99.90;;;-146.41;100.00;57768.22;5018625;28;2580;-69
2024/02/11 03:11:20;;;;;;;;;;;6.30;99.90;;;-146.41;100.00;57768.22;5017400;28;2699;-69
2024/02/11 03:13:47;;;;;;;;;;;6.30;99.90;;;-146.41;100.00;57768.22;5017342;28;1990;-70
2024/02/11 03:16:16;;;;;;;;;;;6.40;99.90;;;-146.41;100.00;57768.22;5017663;28;1418;-68
2024/02/11 03:18:43;;;;;;;;;;;6.30;99.90;;;-146.41;100.00;57768.22;5022225;28;1390;-69
2024/02/11 03:21:10;;;;;;;;;;;6.30;99.90;;;-146.41;100.00;57768.22;5019071;28;1105;-69
2024/02/11 03:23:37;;;;;;;;;;;6.30;99.90;;;-146.41;100.00;57768.22;5020365;28;1935;-68
2024/02/11 03:26:10;;;;;;;;;;;6.30;99.90;;;-146.41;100.00;57768.22;5017795;28;2194;-69
2024/02/11 03:28:37;;;;;;;;;;;6.30;99.90;;;-146.41;100.00;57768.22;5018659;28;1061;-69
2024/02/11 03:31:05;;;;;;;;;;;6.30;99.90;;;-146.41;100.00;57768.22;5017626;28;1173;-69
2024/02/11 03:33:32;;;;;;;;;;;6.40;99.90;;;-146.41;100.00;57768.22;5017339;28;1910;-68
2024/02/11 03:35:59;;;;;;;;;;;6.30;99.90;;;-146.41;100.00;57768.22;5018826;28;1381;-69
2024/02/11 03:38:26;;;;;;;;;;;6.30;99.90;;;-146.41;100.00;57768.22;5019360;28;2038;-69
2024/02/11 03:40:53;;;;;;;;;;;6.40;99.90;;;-146.41;100.00;57768.22;5020380;28;3798;-69
2024/02/11 03:43:21;;;;;;;;;;;6.20;99.90;;;-146.41;100.00;57768.22;5016988;28;1165;-69
2024/02/11 03:45:49;;;;;;;;;;;6.20;99.90;;;-146.41;100.00;57768.22;5021623;28;1296;-70
2024/02/11 03:48:20;;;;;;;;;;;6.30;99.90;;;-146.41;100.00;57768.22;5020837;28;1221;-69
2024/02/11 03:50:47;;;;;;;;;;;6.20;99.90;;;-146.41;100.00;57768.22;5019914;28;1402;-69
2024/02/11 03:53:20;;;;;;;;;;;6.20;99.90;;;-146.41;100.00;57768.22;5023041;28;1894;-69
2024/02/11 03:55:47;;;;;;;;;;;6.20;99.90;;;-146.41;100.00;57768.22;5022286;28;2524;-69
2024/02/11 03:58:14;;;;;;;;;;;6.10;99.90;;;-146.41;100.00;57768.22;5021484;28;1335;-69
2024/02/11 04:00:44;;;;;;;;;;;6.10;99.90;;;-146.41;100.00;57768.22;5019817;28;1389;-69
2024/02/11 04:03:12;;;;;;;;;;;6.10;99.90;;;-146.41;100.00;57768.22;5020485;28;1351;-69
2024/02/11 04:05:43;;;;;;;;;;;6.10;99.90;;;-146.41;100.00;57768.22;5022492;28;1359;-69
2024/02/11 04:08:11;;;;;;;;;;;6.20;99.90;;;-146.41;100.00;57768.22;5022047;28;1374;-69
2024/02/11 04:10:39;;;;;;;;;;;6.10;99.90;;;-146.41;100.00;57768.22;5023446;28;2158;-69
2024/02/11 04:13:09;;;;;;;;;;;6.10;99.90;;;-146.41;100.00;57768.22;5020238;28;1903;-69
2024/02/11 04:15:39;;;;;;;;;;;6.20;99.90;;;-146.41;100.00;57768.22;5021314;28;1296;-69
2024/02/11 04:18:10;;;;;;;;;;;6.20;99.90;;;-146.41;100.00;57768.22;5020779;28;1165;-68
2024/02/11 04:20:38;;;;;;;;;;;6.20;99.90;;;-146.41;100.00;57768.22;5020937;28;1338;-69
2024/02/11 04:23:07;;;;;;;;;;;6.20;99.90;;;-146.41;100.00;57768.22;5024426;28;3287;-69
2024/02/11 04:25:36;;;;;;;;;;;6.20;99.90;;;-146.41;100.00;57768.22;5023703;28;1268;-69
2024/02/11 04:28:07;;;;;;;;;;;6.20;99.90;;;-146.41;100.00;57768.22;5022464;28;1292;-69
2024/02/11 04:30:41;;;;;;;;;;;6.20;99.90;;;-146.41;100.00;57768.22;5021773;28;1072;-69
2024/02/11 04:33:13;;;;;;;;;;;6.20;99.90;;;-146.41;100.00;57768.22;5021776;28;2132;-69
2024/02/11 04:35:41;;;;;;;;;;;6.20;99.90;;;-146.41;100.00;57768.22;5021154;28;2447;-69
2024/02/11 04:38:12;;;;;;;;;;;6.20;99.90;;;-146.41;100.00;57768.22;5021167;28;2553;-69
2024/02/11 04:40:41;;;;;;;;;;;6.10;99.90;;;-146.41;100.00;57768.22;5020432;28;1061;-69
2024/02/11 04:43:08;;;;;;;;;;;6.10;99.90;;;-146.41;100.00;57768.22;5009952;28;1414;-69
2024/02/11 04:45:37;;;;;;;;;;;6.10;99.90;;;-146.41;100.00;57768.22;5017861;28;1343;-69
2024/02/11 04:48:04;;;;;;;;;;;6.10;99.90;;;-146.41;100.00;57768.22;5017771;28;1336;-69
2024/02/11 04:50:34;;;;;;;;;;;6.10;99.90;;;-146.41;100.00;57768.22;5019910;28;1094;-69
2024/02/11 04:53:02;;;;;;;;;;;6.10;99.90;;;-146.41;100.00;57768.22;5003944;28;2009;-69
2024/02/11 04:55:38;;;;;;;;;;;6.10;99.90;;;-146.41;100.00;57768.22;5017779;28;1272;-69
2024/02/11 04:58:13;;;;;;;;;;;6.10;99.90;;;-146.41;100.00;57768.22;5022876;28;1129;-69
2024/02/11 05:00:42;;;;;;;;;;;6.10;99.90;;;-146.41;100.00;57768.22;5020132;28;1081;-68
2024/02/11 05:03:10;;;;;;;;;;;6.10;99.90;;;-146.41;100.00;57768.22;5019963;28;1493;-69
2024/02/11 05:05:41;;;;;;;;;;;6.10;99.90;;;-146.41;100.00;57768.22;5021425;28;3180;-69
2024/02/11 05:08:10;;;;;;;;;;;6.20;99.90;;;-146.41;100.00;57768.22;5020423;28;1088;-69
2024/02/11 05:10:39;;;;;;;;;;;6.10;99.90;;;-146.41;100.00;57768.22;5022033;28;1050;-69
2024/02/11 05:13:08;;;;;;;;;;;6.10;99.90;;;-146.41;100.00;57768.22;5021710;28;2049;-69
2024/02/11 05:15:37;;;;;;;;;;;6.10;99.90;;;-146.41;100.00;57768.22;5020130;28;1367;-69
2024/02/11 05:18:05;;;;;;;;;;;6.20;99.90;;;-146.41;100.00;57768.22;5021114;28;1468;-69
2024/02/11 05:20:32;;;;;;;;;;;6.20;99.90;;;-146.41;100.00;57768.22;5020456;28;2518;-69
2024/02/11 05:22:59;;;;;;;;;;;6.20;99.90;;;-146.41;100.00;57768.22;5020003;28;1316;-69
2024/02/11 05:25:27;;;;;;;;;;;6.20;99.90;;;-146.41;100.00;57768.22;5017044;28;1335;-70
2024/02/11 05:28:03;;;;;;;;;;;6.20;99.90;;;-146.41;100.00;57768.22;5020810;28;1496;-69
2024/02/11 05:30:33;;;;;;;;;;;6.20;99.90;;;-146.41;100.00;57768.22;5021242;28;2013;-68
2024/02/11 05:33:02;;;;;;;;;;;6.20;99.90;;;-146.41;100.00;57768.22;5019479;28;1981;-69
2024/02/11 05:35:34;;;;;;;;;;;6.20;99.90;;;-146.41;100.00;57768.22;5021763;28;2356;-69
2024/02/11 05:38:01;;;;;;;;;;;6.20;99.90;;;-146.41;100.00;57768.22;5020344;28;1166;-69
2024/02/11 05:40:30;;;;;;;;;;;6.30;99.90;;;-146.41;100.00;57768.22;5020358;28;2746;-69
2024/02/11 05:42:58;;;;;;;;;;;6.30;99.90;;;-146.41;100.00;57768.22;5022217;28;1086;-69
2024/02/11 05:45:26;;;;;;;;;;;6.30;99.90;;;-146.41;100.00;57768.22;5019473;28;3987;-70
2024/02/11 05:47:54;;;;;;;;;;;6.30;99.90;;;-146.41;100.00;57768.22;5019745;28;1367;-69
2024/02/11 05:50:22;;;;;;;;;;;6.20;99.90;;;-146.41;100.00;57768.22;5014399;28;1134;-69
2024/02/11 05:52:50;;;;;;;;;;;6.30;99.90;;;-146.41;100.00;57768.22;5016681;28;1902;-69
2024/02/11 05:55:18;;;;;;;;;;;6.20;99.90;;;-146.41;100.00;57768.22;5017633;28;1387;-69
2024/02/11 05:57:46;;;;;;;;;;;6.20;99.90;;;-146.41;100.00;57768.22;5017499;28;1416;-69
2024/02/11 06:00:14;;;;;;;;;;;6.20;99.90;;;-146.41;100.00;57768.22;5021097;28;1891;-69
2024/02/11 06:02:43;;;;;;;;;;;6.30;99.90;;;-146.41;100.00;57768.22;5017373;28;1455;-69
2024/02/11 06:05:14;;;;;;;;;;;6.30;99.90;;;-146.41;100.00;57768.22;5020628;28;1284;-68
2024/02/11 06:07:43;;;;;;;;;;;6.20;99.90;;;-146.41;100.00;57768.22;5018197;28;1399;-69
2024/02/11 06:10:13;;;;;;;;;;;6.20;99.90;;;-146.41;100.00;57768.22;5018723;28;1459;-69
2024/02/11 06:12:40;;;;;;;;;;;6.20;99.90;;;-146.41;100.00;57768.22;5018643;28;1935;-69
2024/02/11 06:15:09;;;;;;;;;;;6.20;99.90;;;-146.41;100.00;57768.22;5017823;28;2523;-69
2024/02/11 06:17:36;;;;;;;;;;;6.30;99.90;;;-146.41;100.00;57768.22;5017518;28;1093;-69
2024/02/11 06:20:04;;;;;;;;;;;6.30;99.90;;;-146.41;100.00;57768.22;5019385;28;2031;-69
2024/02/11 06:22:31;;;;;;;;;;;6.30;99.90;;;-146.41;100.00;57768.22;5019588;28;1346;-69
2024/02/11 06:24:58;;;;;;;;;;;6.20;99.90;;;-146.41;100.00;57768.22;5020970;28;1272;-70
2024/02/11 06:27:25;;;;;;;;;;;6.30;99.90;;;-146.41;100.00;57768.22;5008382;28;1492;-69
2024/02/11 06:29:52;;;;;;;;;;;6.30;99.90;;;-146.41;100.00;57768.22;5017179;28;3070;-69
2024/02/11 06:32:19;;;;;;;;;;;6.20;99.90;;;-146.41;100.00;57768.22;5017371;28;1086;-69
2024/02/11 06:34:46;;;;;;;;;;;6.30;99.90;;;-146.41;100.00;57768.22;5022623;28;1906;-69
2024/02/11 06:37:12;;;;;;;;;;;6.40;99.90;;;-146.41;100.00;57768.22;5016253;28;1166;-69
2024/02/11 06:39:39;;;;;;;;;;;6.30;99.90;;;-146.41;100.00;57768.22;5016876;28;1092;-69
2024/02/11 06:42:09;;;;;;;;;;;6.40;99.90;;;-146.41;100.00;57768.22;5019921;28;1352;-68
2024/02/11 06:44:38;;;;;;;;;;;6.30;99.90;;;-146.41;100.00;57768.22;5017871;28;2019;-69
2024/02/11 06:47:11;;;;;;;;;;;6.30;99.90;;;-146.41;100.00;57768.22;5019291;28;1185;-69
2024/02/11 06:49:38;;;;;;;;;;;6.30;99.90;;;-146.41;100.00;57768.22;5023546;28;1930;-69
2024/02/11 06:52:09;;;;;;;;;;;6.20;99.90;;;-146.41;100.00;57768.22;5017103;28;1061;-69
2024/02/11 06:54:40;;;;;;;;;;;6.30;99.90;;;-146.41;100.00;57768.22;5017585;28;1902;-69
2024/02/11 06:57:06;;;;;;;;;;;6.20;99.90;;;-146.41;100.00;57768.22;5017355;28;1897;-69
2024/02/11 06:59:34;;;;;;;;;;;6.30;99.90;;;-146.41;100.00;57768.22;5018912;28;1318;-69
2024/02/11 07:02:01;;;;;;;;;;;6.30;99.90;;;-146.41;100.00;57768.22;5018815;28;1322;-69
2024/02/11 07:04:32;;;;;;;;;;;6.20;99.90;;;-146.41;100.00;57768.22;5019985;28;1823;-69
2024/02/11 07:07:02;;;;;;;;;;;6.20;99.90;;;-146.41;100.00;57768.22;5016736;28;1203;-70
2024/02/11 07:09:29;;;;;;;;;;;6.30;99.90;;;-146.41;100.00;57768.22;5015575;28;1352;-69
2024/02/11 07:11:59;;;;;;;;;;;6.30;99.90;;;-146.41;100.00;57768.22;5018539;28;3210;-69
2024/02/11 07:14:26;;;;;;;;;;;6.30;99.90;;;-146.41;100.00;57768.22;5019200;28;1902;-69
2024/02/11 07:16:58;;;;;;;;;;;6.30;99.90;;;-146.41;100.00;57768.22;5018020;28;1459;-69
2024/02/11 07:19:25;;;;;;;;;;;6.30;99.90;;;-146.41;100.00;57768.22;5018068;28;1426;-69
2024/02/11 07:21:52;;;;;;;;;;;6.40;99.90;;;-146.41;100.00;57768.22;5016243;28;1169;-69
2024/02/11 07:24:19;;;;;;;;;;;6.40;99.90;;;-146.41;100.00;57768.22;5019094;28;1311;-69
2024/02/11 07:26:49;;;;;;;;;;;6.40;99.90;;;-146.41;100.00;57768.22;5015629;28;2226;-69
2024/02/11 07:29:17;;;;;;;;;;;6.30;99.90;;;-146.41;100.00;57768.22;5017020;28;1185;-69
2024/02/11 07:31:44;;;;;;;;;;;6.40;99.90;;;-146.41;100.00;57768.22;5020488;28;1440;-68
2024/02/11 07:34:11;;;;;;;;;;;6.40;99.90;;;-146.41;100.00;57768.22;5018906;28;1906;-69
2024/02/11 07:36:40;;;;;;;;;;;6.40;99.90;;;-146.41;100.00;57768.22;5018452;28;1260;-69
2024/02/11 07:39:08;;;;;;;;;;;6.40;99.90;;;-146.41;100.00;57768.22;5015068;28;1972;-69
2024/02/11 07:41:35;;;;;;;;;;;6.40;99.90;;;-146.41;100.00;57768.22;5018944;28;2945;-69
2024/02/11 07:44:02;;;;;;;;;;;6.40;99.90;;;-146.41;100.00;57768.22;5019765;28;1394;-70
2024/02/11 07:46:29;;;;;;;;;;;6.40;99.90;;;-146.41;100.00;57768.22;5017759;28;1426;-69
2024/02/11 07:49:03;;;;;;;;;;;6.40;99.90;;;-146.41;100.00;57768.22;5013980;28;1440;-69
2024/02/11 07:51:30;;;;;;;;;;;6.40;99.90;;;-146.41;100.00;57768.22;5014726;28;1648;-69
2024/02/11 07:53:57;;;;;;;;;;;6.30;99.90;;;-146.41;100.00;57768.22;5013526;28;1914;-69
2024/02/11 07:56:25;;;;;;;;;;;6.40;99.90;;;-146.41;100.00;57768.22;5017248;28;3124;-69
2024/02/11 07:58:52;;;;;;;;;;;6.50;99.90;;;-146.41;100.00;57768.22;5016825;28;1097;-69
2024/02/11 08:01:19;;;;;;;;;;;6.50;99.90;;;-146.41;100.00;57768.22;5018157;28;1082;-69
2024/02/11 08:03:47;;;;;;;;;;;6.50;99.90;;;-146.41;100.00;57768.22;5018978;28;1314;-69
2024/02/11 08:06:15;;;;;;;;;;;6.40;99.90;;;-146.41;100.00;57768.22;5017031;28;2028;-69
2024/02/11 08:08:42;;;;;;;;;;;6.40;99.90;;;-146.41;100.00;57768.22;5018433;28;1113;-70
2024/02/11 08:11:09;;;;;;;;;;;6.40;99.90;;;-146.41;100.00;57768.22;5014290;28;2220;-69
2024/02/11 08:13:36;;;;;;;;;;;6.40;99.90;;;-146.41;100.00;57768.22;5014368;28;1989;-69
2024/02/11 08:16:03;;;;;;;;;;;6.50;99.90;;;-146.41;100.00;57768.22;5013814;28;1411;-69
2024/02/11 08:18:30;;;;;;;;;;;6.50;99.90;;;-146.41;100.00;57768.22;5018597;28;1356;-69
2024/02/11 08:20:57;;;;;;;;;;;6.40;99.90;;;-146.41;100.00;57768.22;5017217;28;1605;-69
2024/02/11 08:23:27;;;;;;;;;;;6.50;99.90;;;-146.41;100.00;57768.22;5018590;28;2244;-69
2024/02/11 08:25:55;;;;;;;;;;;6.60;99.90;;;-146.41;100.00;57768.22;5022091;28;1393;-68
2024/02/11 08:28:22;;;;;;;;;;;6.60;99.90;;;-146.41;100.00;57768.22;5018805;28;1354;-69
2024/02/11 08:30:49;;;;;;;;;;;6.60;99.90;;;-146.41;100.00;57768.22;5018226;28;1181;-68
2024/02/11 08:33:16;;;;;;;;;;;6.60;99.90;;;-146.41;100.00;57768.22;5021740;28;2615;-68
2024/02/11 08:35:47;;;;;;;;;;;6.50;99.90;;;-146.41;100.00;57768.22;5022350;28;3734;-68
2024/02/11 08:38:14;;;;;;;;;;;6.60;99.90;;;-146.41;100.00;57768.22;5021383;28;1034;-68
2024/02/11 08:40:41;;;;;;;;;;;6.60;99.90;;;-146.41;100.00;57768.22;5020430;28;1149;-69
2024/02/11 08:43:08;;;;;;;;;;;6.60;99.90;;;-146.41;100.00;57768.22;5018587;28;1214;-68
2024/02/11 08:45:36;;;;;;;;;;;6.60;99.90;;;-146.41;100.00;57768.22;5018868;28;1378;-68
2024/02/11 08:48:03;;;;;;;;;;;6.60;99.90;;;-146.41;100.00;57768.22;5022033;28;1425;-68
2024/02/11 08:50:30;;;;;;;;;;;6.70;99.90;;;-146.41;100.00;57768.22;5019292;28;2222;-68
2024/02/11 08:52:59;;;;;;;;;;;6.60;99.90;;;-146.41;100.00;57768.22;5018860;28;1184;-69
2024/02/11 08:55:27;;;;;;;;;;;6.60;99.90;;;-146.41;100.00;57768.22;5017041;28;1902;-68
2024/02/11 08:57:54;;;;;;;;;;;6.50;99.90;;;-146.41;100.00;57768.22;5021841;28;1300;-69
2024/02/11 09:00:22;;;;;;;;;;;6.60;99.90;;;-146.41;100.00;57768.22;5022325;28;1737;-69
2024/02/11 09:02:49;;;;;;;;;;;6.50;99.90;;;-146.41;100.00;57768.22;5020060;28;1191;-69
2024/02/11 09:05:16;;;;;;;;;;;6.50;99.90;;;-146.41;100.00;57768.22;5020279;28;2054;-68
2024/02/11 09:07:43;;;;;;;;;;;6.60;99.90;;;-146.41;100.00;57768.22;5024098;28;1412;-69
2024/02/11 09:10:13;;;;;;;;;;;6.70;99.90;;;-146.41;100.00;57768.22;5019533;28;1191;-69
2024/02/11 09:12:41;;;;;;;;;;;6.80;99.90;;;-146.41;100.00;57768.22;5018664;28;1158;-68
2024/02/11 09:15:09;;;;;;;;;;;6.90;99.90;;;-146.41;100.00;57768.22;5022471;28;1989;-68
2024/02/11 09:17:43;;;;;;;;;;;6.80;99.90;;;-146.41;100.00;57768.22;5019888;28;1465;-69
2024/02/11 09:20:14;;;;;;;;;;;6.90;99.90;;;-146.41;100.00;57768.22;5024774;28;3651;-69
2024/02/11 09:22:41;;;;;;;;;;;7.00;99.90;;;-146.41;100.00;57768.22;5019776;28;1115;-69
2024/02/11 09:25:11;;;;;;;;;;;7.00;99.90;;;-146.41;100.00;57768.22;5017589;28;1284;-68
2024/02/11 09:27:38;;;;;;;;;;;6.90;99.90;;;-146.41;100.00;57768.22;5025085;28;1081;-69
2024/02/11 09:30:11;;;;;;;;;;;7.00;99.90;;;-146.41;100.00;57768.22;5021088;28;1161;-69
2024/02/11 09:32:39;;;;;;;;;;;7.00;99.90;;;-146.41;100.00;57768.22;5023037;28;2093;-68
2024/02/11 09:35:07;;;;;;;;;;;7.00;99.90;;;-146.41;100.00;57768.22;5019854;28;1981;-68
2024/02/11 09:37:34;;;;;;;;;;;7.10;99.90;;;-146.41;100.00;57768.22;5021521;28;1423;-68
2024/02/11 09:40:02;;;;;;;;;;;7.10;99.90;;;-146.41;100.00;57768.22;5019596;28;2714;-68
2024/02/11 09:42:29;;;;;;;;;;;7.10;99.90;;;-146.41;100.00;57768.22;5021221;28;2641;-69
2024/02/11 09:44:57;;;;;;;;;;;7.00;99.90;;;-146.41;100.00;57768.22;5020165;28;1331;-69
2024/02/11 09:47:25;;;;;;;;;;;7.10;99.90;;;-146.41;100.00;57768.22;5016134;28;1899;-68
2024/02/11 09:49:53;;;;;;;;;;;7.10;99.90;;;-146.41;100.00;57768.22;5003314;28;1754;-68
2024/02/11 09:52:21;;;;;;;;;;;7.00;99.90;;;-146.41;100.00;57768.22;5020361;28;1362;-69
2024/02/11 09:54:49;;;;;;;;;;;7.00;99.90;;;-146.41;100.00;57768.22;5007114;28;1887;-69
2024/02/11 09:57:16;;;;;;;;;;;6.80;99.90;;;-146.41;100.00;57768.22;5010883;28;3186;-68
2024/02/11 09:59:45;;;;;;;;;;;6.90;99.90;;;-146.41;100.00;57768.22;5017147;28;1163;-68
2024/02/11 10:02:17;;;;;;;;;;;6.90;99.90;;;-146.41;100.00;57768.22;5021073;28;1124;-68
2024/02/11 10:04:46;;;;;;;;;;;7.00;99.90;;;-146.41;100.00;57768.22;5018822;28;1409;-68
2024/02/11 10:07:26;;;;;;;;;;;7.00;99.90;;;-146.41;100.00;57768.22;5015913;28;1465;-69
2024/02/11 10:09:56;;;;;;;;;;;7.10;99.90;;;-146.41;100.00;57768.22;5018570;28;1332;-68
2024/02/11 10:12:24;;;;;;;;;;;7.10;99.90;;;-146.41;100.00;57768.22;5016505;28;2338;-68
2024/02/11 10:14:58;;;;;;;;;;;7.10;99.90;;;-146.41;100.00;57768.22;5019348;28;2001;-68
2024/02/11 10:17:25;;;;;;;;;;;7.10;99.90;;;-146.41;100.00;57768.22;5017556;28;1287;-67
2024/02/11 10:19:53;;;;;;;;;;;7.10;99.90;;;-146.41;100.00;57768.22;5016377;28;1424;-68
2024/02/11 10:22:24;;;;;;;;;;;7.20;99.90;;;-146.41;100.00;57768.22;5016579;28;1869;-67
2024/02/11 10:24:56;;;;;;;;;;;7.10;99.90;;;-146.41;100.00;57768.22;5017982;28;2650;-68
2024/02/11 10:27:23;;;;;;;;;;;7.20;99.90;;;-146.41;100.00;57768.22;5015875;28;1192;-68
2024/02/11 10:29:50;;;;;;;;;;;7.30;99.90;;;-146.41;100.00;57768.22;5018335;28;1061;-68
2024/02/11 10:32:18;;;;;;;;;;;7.30;99.90;;;-146.41;100.00;57768.22;5015297;28;1356;-69
2024/02/11 10:34:45;;;;;;;;;;;7.50;99.90;;;-146.41;100.00;57768.22;5018216;28;1930;-68
2024/02/11 10:37:15;;;;;;;;;;;7.60;99.90;;;-146.41;100.00;57768.22;5019419;28;1161;-68
2024/02/11 10:39:42;;;;;;;;;;;7.50;99.90;;;-146.41;100.00;57768.22;5016383;28;1099;-68
2024/02/11 10:42:11;;;;;;;;;;;7.50;99.90;;;-146.41;100.00;57768.22;5015506;28;1570;-68
2024/02/11 10:44:38;;;;;;;;;;;7.50;99.90;;;-146.41;100.00;57768.22;5015317;28;1331;-68
2024/02/11 10:47:09;;;;;;;;;;;7.60;99.90;;;-146.41;100.00;57768.22;5014497;28;1289;-68
2024/02/11 10:49:36;;;;;;;;;;;7.60;99.90;;;-146.41;100.00;57768.22;5017093;28;1303;-68
2024/02/11 10:52:07;;;;;;;;;;;7.60;99.90;;;-146.41;100.00;57768.22;5017140;28;1687;-68
2024/02/11 10:54:42;;;;;;;;;;;7.70;99.90;;;-146.41;100.00;57768.22;5015488;28;2148;-68
2024/02/11 10:57:19;;;;;;;;;;;7.80;99.90;;;-146.41;100.00;57768.22;5016483;28;1090;-68
2024/02/11 11:00:07;;;;;;;;;;;7.80;99.90;;;-146.41;100.00;57768.22;5019997;28;1042;-68
2024/02/11 11:02:36;;;;;;;;;;;7.80;99.90;;;-146.41;100.00;57768.22;5013578;28;1700;-68
2024/02/11 11:05:17;;;;;;;;;;;7.80;99.90;;;-146.41;100.00;57768.22;5015586;28;1397;-68
2024/02/11 11:07:48;;;;;;;;;;;7.80;99.90;;;-146.41;100.00;57768.22;5017040;28;1606;-69
2024/02/11 11:10:16;;;;;;;;;;;7.80;99.90;;;-146.41;100.00;57768.22;5018044;28;1740;-68
2024/02/11 11:12:46;;;;;;;;;;;8.00;99.90;;;-146.41;100.00;57768.22;5017739;28;1343;-69
2024/02/11 11:15:21;;;;;;;;;;;8.00;99.90;;;-146.41;100.00;57768.22;5017920;28;1926;-69